Time;durP1;ratioP1;P1;durP2;ratioP2;P2;SDS_P1;SDS_P2;PMS_P1;PMS_P2;Temp;Humidity;BMP_temperature;BMP_pressure;BME280_temperature;BME280_humidity;BME280_pressure;Samples;Min_cycle;Max_cycle;Signal;HPM_P1;HPM_P2
2022/12/22 03:28:35;;;;;;;47.35;21.98;;;;;;;-0.42;76.57;100045.22;5026650;28;20043;-43
2022/12/22 03:31:03;;;;;;;64.15;31.80;;;;;;;-0.11;78.78;100041.88;5071423;28;20021;-43
2022/12/22 03:33:30;;;;;;;43.80;21.98;;;;;;;0.33;76.56;100047.78;5071557;28;20044;-42
2022/12/22 03:35:55;;;;;;;41.05;18.10;;;;;;;-0.42;70.50;100033.91;5071391;28;20447;-42
2022/12/22 03:38:21;;;;;;;34.85;17.98;;;;;;;-0.38;72.01;100037.09;5071292;28;20078;-42
2022/12/22 03:40:46;;;;;;;41.75;21.77;;;;;;;-0.35;77.98;100034.25;5070999;28;20064;-42
2022/12/22 03:48:43;;;;;;;37.97;17.90;;;;;;;-0.20;69.72;100044.28;5071465;28;20070;-42
2022/12/22 03:51:08;;;;;;;38.97;18.90;;;;;;;-0.37;72.32;100036.97;5070966;28;20441;-43
2022/12/22 03:53:34;;;;;;;45.63;21.52;;;;;;;-0.52;76.71;100030.41;5071178;28;20055;-42
2022/12/22 03:55:59;;;;;;;42.50;20.50;;;;;;;-0.17;78.49;100035.34;5071472;28;20021;-43
2022/12/22 03:58:25;;;;;;;43.38;20.95;;;;;;;0.26;77.11;100036.97;5071324;28;20450;-43
2022/12/22 04:00:50;;;;;;;42.60;19.80;;;;;;;-0.41;72.10;100039.03;5071247;28;20387;-43
2022/12/22 04:03:16;;;;;;;45.42;22.58;;;;;;;-0.48;72.96;100034.41;5071017;28;20413;-42
2022/12/22 04:05:42;;;;;;;42.67;20.65;;;;;;;-0.32;72.86;100028.78;5071012;28;20659;-42
2022/12/22 04:08:08;;;;;;;39.80;20.50;;;;;;;-0.35;78.05;100027.22;5070512;28;20478;-42
2022/12/22 04:13:17;;;;;;;37.25;18.60;;;;;;;0.15;70.52;100031.81;5070196;28;20054;-42
2022/12/22 04:15:43;;;;;;;37.58;19.60;;;;;;;-0.37;69.46;100029.13;5070896;28;20024;-42
2022/12/22 04:18:08;;;;;;;35.20;18.77;;;;;;;-0.33;70.61;100029.72;5070681;28;20041;-42
2022/12/22 04:20:34;;;;;;;67.07;30.90;;;;;;;-0.29;75.26;100028.50;5071017;28;20025;-42
2022/12/22 04:23:00;;;;;;;55.45;25.85;;;;;;;0.23;77.22;100020.69;5070613;28;20032;-42
2022/12/22 04:25:26;;;;;;;60.88;26.05;;;;;;;0.12;73.17;100032.09;5070638;28;20102;-43
2022/12/22 04:27:51;;;;;;;52.03;23.15;;;;;;;-0.33;71.73;100021.88;5070937;28;20169;-42
2022/12/22 04:30:17;;;;;;;40.95;21.08;;;;;;;-0.40;72.91;100029.38;5070685;28;20087;-42
2022/12/22 04:32:42;;;;;;;49.85;22.45;;;;;;;-0.29;76.32;100031.13;5070777;28;20021;-41
2022/12/22 04:35:09;;;;;;;61.33;26.05;;;;;;;0.27;78.34;100025.56;5070660;28;20024;-42
2022/12/22 04:37:35;;;;;;;72.25;23.05;;;;;;;0.26;71.45;100033.53;5070701;28;20016;-42
2022/12/22 04:40:01;;;;;;;59.22;23.48;;;;;;;-0.16;69.80;100031.78;5070408;28;20477;-43
2022/12/22 04:42:26;;;;;;;56.67;23.02;;;;;;;-0.18;76.26;100033.69;5070440;28;20036;-42
2022/12/22 04:44:52;;;;;;;66.57;23.27;;;;;;;0.31;79.64;100037.44;5070463;28;20020;-42
2022/12/22 04:47:17;;;;;;;59.17;22.27;;;;;;;-0.06;82.28;100031.81;5070357;28;20028;-42
2022/12/22 04:49:43;;;;;;;58.95;21.35;;;;;;;-0.91;81.94;100041.34;5070866;28;20025;-42
2022/12/22 04:52:08;;;;;;;42.95;20.65;;;;;;;-1.24;80.11;100039.59;5070669;28;20037;-41
2022/12/22 04:54:34;;;;;;;44.85;18.85;;;;;;;-1.74;80.26;100034.72;5070497;28;20365;-42
2022/12/22 04:56:59;;;;;;;43.75;19.00;;;;;;;-1.85;85.50;100032.94;5070563;28;20027;-42
2022/12/22 04:59:25;;;;;;;47.55;22.55;;;;;;;-1.70;86.75;100024.88;5070231;28;20025;-42
2022/12/22 05:01:50;;;;;;;61.13;28.13;;;;;;;-1.40;87.20;100027.72;5070150;28;20086;-43
2022/12/22 05:04:16;;;;;;;65.70;29.63;;;;;;;-1.13;86.02;100034.34;5070402;28;20036;-43
2022/12/22 05:06:41;;;;;;;40.72;21.77;;;;;;;-1.44;84.77;100034.16;5070292;28;20448;-42
2022/12/22 05:09:07;;;;;;;45.78;20.02;;;;;;;-1.70;84.15;100028.31;5070093;28;20043;-43
2022/12/22 05:11:32;;;;;;;38.63;18.83;;;;;;;-2.00;83.47;100028.88;5070469;28;20024;-42
2022/12/22 05:13:58;;;;;;;40.90;19.38;;;;;;;-2.04;84.38;100028.28;5070390;28;20024;-43
2022/12/22 05:16:23;;;;;;;36.67;19.40;;;;;;;-2.12;83.71;100028.03;5070045;28;20028;-42
2022/12/22 05:18:48;;;;;;;43.95;19.45;;;;;;;-2.19;84.08;100030.28;5069965;28;20488;-42
2022/12/22 05:21:20;;;;;;;142.90;56.63;;;;;;;-2.22;84.35;100024.44;5072047;28;20032;-42
2022/12/22 05:23:46;;;;;;;87.00;36.17;;;;;;;-2.29;84.50;100029.28;5073622;28;20029;-42
2022/12/22 05:26:13;;;;;;;43.40;20.83;;;;;;;-2.25;86.86;100027.28;5074299;28;20051;-44
2022/12/22 05:28:39;;;;;;;48.40;20.77;;;;;;;-2.10;85.64;100033.13;5074145;28;20024;-42
2022/12/22 05:31:14;;;;;;;43.28;18.90;;;;;;;-1.99;86.55;100031.38;5072700;28;20047;-43
2022/12/22 05:33:39;;;;;;;42.75;19.73;;;;;;;-2.12;85.33;100035.03;5072802;28;20459;-43
2022/12/22 05:36:05;;;;;;;36.45;18.58;;;;;;;-1.88;86.91;100027.13;5073122;28;20085;-43
2022/12/22 05:38:30;;;;;;;40.33;18.67;;;;;;;-1.22;85.77;100041.16;5072726;28;20123;-43
2022/12/22 05:40:56;;;;;;;48.70;19.77;;;;;;;-0.92;83.27;100036.22;5072427;28;20107;-42
2022/12/22 05:43:21;;;;;;;43.83;19.05;;;;;;;-1.08;83.49;100032.22;5072489;28;20085;-43
2022/12/22 05:45:47;;;;;;;39.58;19.60;;;;;;;-0.77;85.69;100031.56;5072609;28;20224;-44
2022/12/22 05:48:12;;;;;;;37.90;19.23;;;;;;;-0.69;83.13;100035.19;5066592;28;20607;-43
2022/12/22 05:50:38;;;;;;;39.90;18.65;;;;;;;-0.43;80.65;100030.47;5057421;28;20028;-43
2022/12/22 05:53:05;;;;;;;40.50;19.45;;;;;;;-0.71;80.46;100036.28;5067541;28;20024;-41
2022/12/22 05:55:31;;;;;;;37.70;19.20;;;;;;;-0.54;81.50;100025.28;5072232;28;20027;-42
2022/12/22 05:58:00;;;;;;;37.35;18.00;;;;;;;-0.23;81.45;100025.38;5072428;28;20043;-42
2022/12/22 06:00:27;;;;;;;33.42;17.55;;;;;;;0.05;78.95;100025.72;5072712;28;20036;-43
2022/12/22 06:02:52;;;;;;;33.35;17.30;;;;;;;-0.23;78.94;100034.06;5072586;28;20162;-42
2022/12/22 06:05:18;;;;;;;32.72;16.58;;;;;;;-0.22;78.17;100037.50;5072302;28;20022;-43
2022/12/22 06:07:43;;;;;;;40.85;18.48;;;;;;;-0.14;78.13;100034.25;5072042;28;20025;-43
2022/12/22 06:10:10;;;;;;;44.22;19.25;;;;;;;-0.10;78.08;100026.03;5071039;28;20212;-42
2022/12/22 06:12:35;;;;;;;34.78;18.10;;;;;;;0.23;77.55;100028.56;5070505;28;20028;-43
2022/12/22 06:15:01;;;;;;;33.47;16.30;;;;;;;-0.10;78.34;100033.03;5070791;28;20040;-42
2022/12/22 06:17:26;;;;;;;35.67;18.08;;;;;;;0.34;77.71;100037.19;5070591;28;20056;-43
2022/12/22 06:19:51;;;;;;;39.10;17.65;;;;;;;0.51;76.45;100040.94;5070912;28;20456;-43
2022/12/22 06:22:17;;;;;;;34.50;16.38;;;;;;;0.82;75.74;100043.56;5071135;28;20024;-43
2022/12/22 06:24:43;;;;;;;32.10;16.20;;;;;;;0.66;76.27;100049.28;5071439;28;20020;-44
2022/12/22 06:27:09;;;;;;;31.42;16.02;;;;;;;0.73;76.91;100052.22;5071403;28;20020;-43
2022/12/22 06:29:35;;;;;;;37.25;17.35;;;;;;;0.88;76.48;100048.28;5072076;28;20029;-44
2022/12/22 06:32:01;;;;;;;34.88;17.20;;;;;;;0.93;76.90;100053.09;5071235;28;20043;-44
2022/12/22 06:34:26;;;;;;;35.70;17.33;;;;;;;1.09;76.19;100050.00;5071998;28;20035;-43
2022/12/22 06:36:51;;;;;;;31.77;16.42;;;;;;;1.14;76.42;100053.88;5071836;28;20415;-43
2022/12/22 06:39:17;;;;;;;36.50;16.33;;;;;;;1.41;75.80;100039.28;5071365;28;20585;-43
2022/12/22 06:44:27;;;;;;;38.08;18.58;;;;;;;2.04;73.82;100051.13;5071481;28;20055;-44
2022/12/22 06:46:52;;;;;;;42.28;21.83;;;;;;;1.84;72.52;100053.75;5071565;28;20495;-44
2022/12/22 06:49:18;;;;;;;46.85;20.23;;;;;;;1.99;73.41;100059.41;5071325;28;20030;-45
2022/12/22 06:51:44;;;;;;;62.78;31.45;;;;;;;2.23;73.79;100060.72;5071570;28;20024;-45
2022/12/22 06:54:09;;;;;;;59.38;27.70;;;;;;;2.64;72.76;100066.56;5071308;28;20420;-44
2022/12/22 06:56:34;;;;;;;39.72;19.65;;;;;;;2.73;72.98;100061.28;5070967;28;20024;-44
2022/12/22 06:59:00;;;;;;;41.15;18.70;;;;;;;2.91;71.31;100060.50;5071408;28;20028;-43
2022/12/22 07:01:26;;;;;;;36.17;18.55;;;;;;;3.06;70.73;100061.66;5071158;28;20021;-43
2022/12/22 07:03:52;;;;;;;39.38;19.20;;;;;;;3.06;70.45;100058.22;5069419;28;20098;-44
2022/12/22 07:06:17;;;;;;;41.30;19.45;;;;;;;3.42;69.58;100059.09;5071127;28;20056;-45
2022/12/22 07:08:46;;;;;;;42.83;19.55;;;;;;;3.49;69.41;100068.03;5071170;28;20081;-44
2022/12/22 07:11:13;;;;;;;37.15;18.90;;;;;;;3.48;69.31;100057.66;5071082;28;20483;-45
2022/12/22 07:13:38;;;;;;;35.85;18.70;;;;;;;3.26;68.75;100054.50;5071028;28;20108;-45
2022/12/22 07:16:06;;;;;;;34.88;17.63;;;;;;;3.55;68.19;100050.81;5071433;28;20412;-44
2022/12/22 07:18:33;;;;;;;35.65;18.00;;;;;;;3.59;68.57;100046.91;5071176;28;20068;-45
2022/12/22 07:21:01;;;;;;;38.88;19.40;;;;;;;3.58;68.04;100052.31;5071361;28;20036;-46
2022/12/22 07:23:27;;;;;;;38.70;19.35;;;;;;;3.77;68.06;100059.22;5071391;28;20024;-45
2022/12/22 07:25:52;;;;;;;50.75;23.92;;;;;;;3.63;67.33;100057.97;5071258;28;20383;-44
2022/12/22 07:28:18;;;;;;;46.38;21.73;;;;;;;3.42;67.87;100064.34;5070900;28;20123;-44
2022/12/22 07:30:43;;;;;;;44.70;20.95;;;;;;;3.53;67.59;100061.50;5070936;28;20496;-44
2022/12/22 07:33:09;;;;;;;34.60;19.02;;;;;;;3.88;68.69;100054.59;5070925;28;20443;-44
2022/12/22 07:35:34;;;;;;;34.03;17.85;;;;;;;3.86;68.93;100048.63;5070754;28;20453;-44
2022/12/22 07:38:00;;;;;;;28.83;15.90;;;;;;;4.26;67.53;100054.34;5070082;28;20170;-45
2022/12/22 07:40:26;;;;;;;29.63;17.17;;;;;;;4.23;67.13;100058.13;5069935;28;20067;-44
2022/12/22 07:42:59;;;;;;;29.45;16.85;;;;;;;4.08;66.53;100059.66;5068856;28;20067;-43
2022/12/22 07:45:24;;;;;;;30.35;17.85;;;;;;;3.90;68.08;100060.53;5069834;28;20028;-45
2022/12/22 07:47:50;;;;;;;32.53;17.90;;;;;;;4.20;67.04;100053.16;5069787;28;20030;-43
2022/12/22 07:50:24;;;;;;;37.90;19.00;;;;;;;4.29;66.61;100060.13;5069718;28;20024;-43
2022/12/22 07:53:16;;;;;;;42.38;19.35;;;;;;;4.57;64.75;100057.34;5069332;28;20055;-42
2022/12/22 07:55:41;;;;;;;42.85;18.45;;;;;;;4.44;66.13;100060.38;5066202;28;20074;-43
2022/12/22 07:58:07;;;;;;;33.30;16.80;;;;;;;4.52;65.14;100059.59;5069531;28;20130;-42
2022/12/22 08:00:32;;;;;;;31.27;18.02;;;;;;;4.66;65.47;100055.56;5069444;28;20575;-43
2022/12/22 08:02:59;;;;;;;28.17;15.18;;;;;;;4.93;62.71;100057.19;5069624;28;20037;-43
2022/12/22 08:05:24;;;;;;;27.00;15.00;;;;;;;4.89;64.11;100054.03;5069627;28;20024;-42
2022/12/22 08:07:51;;;;;;;31.17;16.90;;;;;;;4.66;64.58;100056.41;5069487;28;20036;-42
2022/12/22 08:10:19;;;;;;;28.45;15.65;;;;;;;4.75;64.30;100046.69;5069641;28;20110;-42
2022/12/22 08:12:45;;;;;;;28.05;15.90;;;;;;;4.84;63.92;100052.84;5069445;28;20043;-42
2022/12/22 08:15:11;;;;;;;26.58;15.65;;;;;;;4.85;63.82;100046.56;5068921;28;20032;-43
2022/12/22 08:17:37;;;;;;;33.05;16.73;;;;;;;5.02;63.92;100048.28;5068996;28;20045;-43
2022/12/22 08:20:03;;;;;;;33.65;16.63;;;;;;;5.18;62.18;100055.44;5069173;28;20086;-42
2022/12/22 08:22:29;;;;;;;29.88;15.68;;;;;;;5.11;61.76;100049.16;5069257;28;20481;-42
2022/12/22 08:24:55;;;;;;;27.13;15.95;;;;;;;5.12;62.49;100047.31;5068503;28;20028;-42
2022/12/22 08:27:26;;;;;;;26.45;15.32;;;;;;;5.22;61.06;100055.94;5068898;28;20033;-43
2022/12/22 08:29:56;;;;;;;29.15;16.30;;;;;;;5.25;62.47;100052.97;5070042;28;20461;-42
2022/12/22 08:32:21;;;;;;;30.70;16.85;;;;;;;5.74;62.24;100053.03;5069671;28;20032;-43
2022/12/22 08:34:49;;;;;;;32.28;16.23;;;;;;;7.24;58.00;100048.06;5070609;28;20032;-43
2022/12/22 08:37:17;;;;;;;27.92;15.57;;;;;;;7.25;56.81;100044.41;5070271;28;20032;-43
2022/12/22 08:39:47;;;;;;;33.88;16.30;;;;;;;6.75;56.49;100040.34;5070381;28;20074;-41
2022/12/22 08:42:17;;;;;;;30.77;16.17;;;;;;;6.67;56.96;100035.94;5070023;28;20051;-43
2022/12/22 08:44:44;;;;;;;27.38;16.65;;;;;;;7.25;54.67;100023.22;5069142;28;20471;-43
2022/12/22 08:47:10;;;;;;;33.10;16.10;;;;;;;7.35;54.07;100023.84;5069432;28;20075;-43
2022/12/22 08:49:35;;;;;;;29.77;16.80;;;;;;;6.88;55.62;100019.47;5070341;28;20480;-42
2022/12/22 08:52:01;;;;;;;29.73;17.10;;;;;;;7.69;53.82;100019.97;5069650;28;20035;-42
2022/12/22 08:54:26;;;;;;;33.55;18.17;;;;;;;8.60;51.21;100019.91;5071132;28;20027;-42
2022/12/22 08:56:52;;;;;;;32.85;18.52;;;;;;;9.30;50.10;100005.25;5073630;28;20113;-42
2022/12/22 08:59:17;;;;;;;33.53;17.80;;;;;;;9.45;47.81;100004.38;5074015;28;20024;-41
2022/12/22 09:01:49;;;;;;;32.95;17.35;;;;;;;9.15;48.99;99999.97;5074718;28;20541;-42
2022/12/22 09:04:17;;;;;;;31.60;17.70;;;;;;;8.51;50.92;99992.69;5074497;28;20472;-41
2022/12/22 09:06:42;;;;;;;35.78;18.15;;;;;;;8.65;50.42;99984.91;5074686;28;20032;-42
2022/12/22 09:09:10;;;;;;;27.80;16.27;;;;;;;8.90;49.58;100001.31;5074234;28;20024;-42
2022/12/22 09:11:36;;;;;;;30.00;16.67;;;;;;;8.61;50.29;99993.22;5073857;28;20525;-42
2022/12/22 09:14:01;;;;;;;30.08;17.80;;;;;;;8.21;51.44;99986.53;5073592;28;20099;-42
2022/12/22 09:16:29;;;;;;;30.20;17.90;;;;;;;8.46;51.99;99989.75;5073786;28;20028;-42
2022/12/22 09:18:55;;;;;;;31.13;16.60;;;;;;;8.38;51.85;99982.69;5073168;28;20056;-41
2022/12/22 09:21:22;;;;;;;28.88;16.65;;;;;;;8.47;50.53;99985.25;5073338;28;20724;-43
2022/12/22 09:23:47;;;;;;;33.00;17.42;;;;;;;8.21;50.13;99979.38;5073084;28;20098;-42
2022/12/22 09:26:17;;;;;;;25.52;15.88;;;;;;;8.39;49.31;99973.72;5073339;28;20446;-42
2022/12/22 09:28:42;;;;;;;32.15;17.17;;;;;;;8.27;49.67;99959.28;5073368;28;20056;-43
2022/12/22 09:31:09;;;;;;;37.15;19.08;;;;;;;9.18;48.93;99966.94;5073427;28;20067;-42
2022/12/22 09:33:35;;;;;;;37.10;18.33;;;;;;;8.90;48.62;99970.28;5073130;28;20029;-42
2022/12/22 09:36:09;;;;;;;41.78;19.33;;;;;;;8.31;50.21;99963.19;5072834;28;20024;-43
2022/12/22 09:38:35;;;;;;;32.28;16.10;;;;;;;7.76;50.76;99972.38;5073039;28;20024;-42
2022/12/22 09:41:26;;;;;;;28.45;16.23;;;;;;;8.00;50.10;99960.72;5073527;28;20032;-42
2022/12/22 09:43:52;;;;;;;29.55;16.33;;;;;;;8.50;49.25;99959.19;5072855;28;20479;-43
2022/12/22 09:46:22;;;;;;;32.60;16.63;;;;;;;8.44;48.77;99954.63;5072157;28;20028;-42
2022/12/22 09:48:48;;;;;;;28.90;15.30;;;;;;;7.90;50.04;99957.50;5073212;28;20100;-41
2022/12/22 09:51:16;;;;;;;25.17;14.00;;;;;;;8.31;49.24;99957.09;5073076;28;20099;-42
2022/12/22 09:53:43;;;;;;;26.98;13.85;;;;;;;8.10;48.07;99953.31;5073071;28;20016;-43
2022/12/22 09:56:14;;;;;;;20.55;12.82;;;;;;;8.30;47.57;99947.47;5072857;28;20032;-42
2022/12/22 09:58:41;;;;;;;26.42;13.18;;;;;;;8.84;46.10;99941.03;5072855;28;20104;-42
2022/12/22 10:01:07;;;;;;;23.85;12.80;;;;;;;8.32;47.57;99933.03;5072708;28;20024;-42
2022/12/22 10:03:48;;;;;;;27.65;12.60;;;;;;;8.35;47.17;99934.50;5072289;28;20171;-42
2022/12/22 10:06:33;;;;;;;22.27;12.02;;;;;;;8.40;47.56;99940.88;5071592;28;20029;-42
2022/12/22 10:09:22;;;;;;;23.58;12.20;;;;;;;8.46;47.36;99931.41;5072427;28;20070;-42
2022/12/22 10:11:52;;;;;;;20.75;11.73;;;;;;;9.29;44.83;99931.06;5072520;28;20454;-43
2022/12/22 10:14:18;;;;;;;22.05;12.35;;;;;;;9.07;45.53;99919.63;5072464;28;20453;-42
2022/12/22 10:16:43;;;;;;;23.77;12.55;;;;;;;8.94;45.91;99909.69;5072277;28;20539;-42
2022/12/22 10:19:11;;;;;;;22.67;12.10;;;;;;;9.02;46.47;99908.75;5070998;28;20528;-42
2022/12/22 10:21:36;;;;;;;23.33;12.70;;;;;;;9.03;45.55;99910.41;5071566;28;20036;-42
2022/12/22 10:24:26;;;;;;;21.48;12.07;;;;;;;9.87;43.91;99899.84;5071730;28;20029;-42
2022/12/22 10:26:56;;;;;;;21.35;11.73;;;;;;;9.46;44.96;99889.13;5072004;28;20036;-42
2022/12/22 10:29:22;;;;;;;21.77;12.27;;;;;;;8.88;46.28;99892.69;5071793;28;20437;-42
2022/12/22 10:31:59;;;;;;;22.42;12.55;;;;;;;8.73;46.93;99906.00;5071870;28;20036;-42
2022/12/22 10:34:24;;;;;;;22.10;12.32;;;;;;;9.23;46.10;99902.63;5071359;28;20086;-41
2022/12/22 10:36:55;;;;;;;24.10;13.30;;;;;;;9.25;46.64;99874.84;5071957;28;20452;-43
2022/12/22 10:39:23;;;;;;;22.65;13.40;;;;;;;10.11;44.65;99881.75;5071953;28;20036;-42
2022/12/22 10:41:50;;;;;;;23.98;13.18;;;;;;;9.49;45.43;99880.78;5072090;28;20021;-41
2022/12/22 10:44:15;;;;;;;22.23;12.95;;;;;;;9.39;45.26;99871.31;5071945;28;20425;-43
2022/12/22 10:46:45;;;;;;;27.48;13.57;;;;;;;9.38;45.08;99872.28;5071430;28;20067;-43
2022/12/22 10:49:14;;;;;;;23.50;13.05;;;;;;;9.49;45.54;99870.16;5072056;28;20028;-42
2022/12/22 10:51:43;;;;;;;23.73;13.55;;;;;;;9.74;44.69;99860.69;5071945;28;20040;-42
2022/12/22 10:54:08;;;;;;;23.38;13.23;;;;;;;8.76;47.51;99863.19;5071575;28;20025;-42
2022/12/22 10:56:36;;;;;;;24.20;13.25;;;;;;;9.05;46.94;99866.72;5071307;28;20035;-42
2022/12/22 10:59:01;;;;;;;23.65;13.32;;;;;;;9.22;46.68;99855.84;5071823;28;20036;-43
2022/12/22 11:01:33;;;;;;;23.08;14.10;;;;;;;9.24;46.06;99849.31;5071763;28;20024;-42
2022/12/22 11:04:15;;;;;;;26.27;13.80;;;;;;;9.08;47.18;99854.88;5071436;28;20430;-42
2022/12/22 11:06:42;;;;;;;23.10;13.02;;;;;;;10.15;45.29;99841.28;5071799;28;20028;-42
2022/12/22 11:09:10;;;;;;;25.00;14.32;;;;;;;9.62;44.67;99845.50;5071840;28;20476;-41
2022/12/22 11:11:54;;;;;;;23.60;13.63;;;;;;;9.27;46.84;99832.16;5071286;28;20477;-42
2022/12/22 11:14:33;;;;;;;23.63;13.45;;;;;;;9.51;45.54;99831.72;5071137;28;20116;-43
2022/12/22 11:17:13;;;;;;;23.65;13.77;;;;;;;9.58;45.46;99827.28;5071492;28;20403;-36
2022/12/22 11:19:47;;;;;;;27.98;13.98;;;;;;;10.10;44.48;99825.09;5071121;28;20045;-36
2022/12/22 11:22:21;;;;;;;23.00;14.38;;;;;;;9.07;46.93;99814.25;5071374;28;20028;-36
2022/12/22 11:25:23;;;;;;;24.60;14.20;;;;;;;9.20;47.25;99805.59;5071585;28;20020;-37
2022/12/22 11:28:04;;;;;;;28.40;14.75;;;;;;;8.61;48.02;99812.81;5071543;28;20025;-37
2022/12/22 11:30:43;;;;;;;24.30;13.63;;;;;;;9.15;46.81;99811.44;5071598;28;20400;-37
2022/12/22 11:33:15;;;;;;;24.57;15.20;;;;;;;9.54;45.91;99803.97;5071324;28;20017;-36
2022/12/22 11:35:55;;;;;;;28.33;14.43;;;;;;;9.20;46.73;99803.75;5071136;28;20056;-36
2022/12/22 11:38:26;;;;;;;28.80;14.98;;;;;;;9.00;46.39;99802.75;5070549;28;20025;-36
2022/12/22 11:41:14;;;;;;;26.30;14.73;;;;;;;8.92;47.20;99798.41;5071405;28;20380;-36
2022/12/22 11:43:57;;;;;;;29.17;14.95;;;;;;;8.85;48.83;99789.56;5071214;28;20028;-36
2022/12/22 11:46:36;;;;;;;26.88;15.25;;;;;;;9.48;46.93;99783.47;5070938;28;20035;-36
2022/12/22 11:49:19;;;;;;;26.33;15.23;;;;;;;9.41;46.70;99786.13;5070345;28;20101;-36
2022/12/22 11:52:09;;;;;;;25.95;14.35;;;;;;;8.94;48.47;99782.28;5070376;28;20024;-36
2022/12/22 11:55:00;;;;;;;24.95;14.35;;;;;;;9.63;47.43;99796.66;5070698;28;20025;-37
2022/12/22 11:57:37;;;;;;;30.45;14.27;;;;;;;9.53;46.81;99791.69;5070566;28;20095;-37
2022/12/22 12:00:14;;;;;;;23.83;13.13;;;;;;;9.12;46.98;99795.09;5070497;28;20028;-36
2022/12/22 12:02:45;;;;;;;20.90;11.90;;;;;;;8.81;46.97;99798.91;5070407;28;20024;-37
2022/12/22 12:05:29;;;;;;;22.13;12.40;;;;;;;9.96;44.83;99794.19;5070333;28;20029;-37
2022/12/22 12:08:30;;;;;;;17.80;11.35;;;;;;;9.42;44.65;99794.91;5070381;28;20107;-36
2022/12/22 12:11:16;;;;;;;21.60;11.95;;;;;;;8.90;46.96;99789.00;5064642;28;20040;-36
2022/12/22 12:14:09;;;;;;;19.33;12.60;;;;;;;9.07;47.01;99792.19;5070360;28;20035;-36
2022/12/22 12:17:26;;;;;;;24.50;13.48;;;;;;;9.48;46.62;99786.97;5070615;28;20151;-36
2022/12/22 12:19:57;;;;;;;22.65;13.50;;;;;;;9.17;48.01;99774.09;4988899;28;20054;-36
2022/12/22 12:22:52;;;;;;;25.42;14.90;;;;;;;9.04;49.15;99774.81;5055780;28;20040;-35
2022/12/22 12:25:40;;;;;;;29.17;15.25;;;;;;;10.07;47.58;99780.31;5070130;28;20115;-35
2022/12/22 12:28:31;;;;;;;30.17;16.70;;;;;;;9.10;49.72;99770.56;5069970;28;20069;-36
2022/12/22 12:30:59;;;;;;;27.15;17.17;;;;;;;9.17;50.44;99771.44;5076327;28;20392;-35
2022/12/22 12:33:47;;;;;;;28.88;17.05;;;;;;;8.96;51.38;99765.16;5076406;28;20024;-37
2022/12/22 12:36:13;;;;;;;26.08;16.08;;;;;;;9.47;49.82;99765.91;5076426;28;20044;-37
2022/12/22 12:38:44;;;;;;;30.30;17.05;;;;;;;9.39;50.09;99773.03;5076336;28;20403;-37
2022/12/22 12:41:19;;;;;;;29.48;16.40;;;;;;;8.71;50.82;99772.72;5076416;28;20025;-37
2022/12/22 12:43:48;;;;;;;24.85;14.45;;;;;;;8.65;50.48;99764.72;5076562;28;20039;-36
2022/12/22 12:46:51;;;;;;;24.55;15.27;;;;;;;8.83;50.75;99769.53;5076411;28;20492;-37
2022/12/22 12:49:34;;;;;;;22.83;14.57;;;;;;;8.58;51.54;99773.41;5076520;28;20029;-37
2022/12/22 12:52:05;;;;;;;26.33;14.45;;;;;;;8.43;51.83;99772.63;5076190;28;20051;-37
2022/12/22 12:54:46;;;;;;;24.23;14.90;;;;;;;9.28;50.27;99770.91;5076217;28;20471;-36
2022/12/22 12:57:23;;;;;;;26.92;14.27;;;;;;;9.41;49.02;99780.00;5076039;28;20024;-36
2022/12/22 12:59:50;;;;;;;27.83;14.95;;;;;;;9.10;49.59;99779.38;5076273;28;20221;-37
2022/12/22 13:02:32;;;;;;;24.42;14.18;;;;;;;8.50;51.43;99776.19;5075958;28;20043;-36
2022/12/22 13:05:16;;;;;;;24.48;13.50;;;;;;;9.23;50.35;99775.97;5074202;28;20107;-36
2022/12/22 13:08:17;;;;;;;30.27;13.68;;;;;;;9.32;49.49;99774.81;5070050;28;20044;-37
2022/12/22 13:10:47;;;;;;;21.02;13.57;;;;;;;8.80;51.25;99773.41;5073872;28;20040;-37
2022/12/22 13:13:33;;;;;;;23.25;14.32;;;;;;;9.22;49.87;99776.19;5073795;28;20217;-36
2022/12/22 13:15:58;;;;;;;24.95;13.75;;;;;;;9.49;48.33;99763.88;5060735;28;20036;-36
2022/12/22 13:18:24;;;;;;;25.95;13.95;;;;;;;9.25;49.10;99773.94;5073477;28;20342;-37
2022/12/22 13:20:56;;;;;;;28.23;14.65;;;;;;;8.54;50.80;99769.50;5073526;28;20035;-40
2022/12/22 13:23:22;;;;;;;25.95;14.25;;;;;;;8.84;50.93;99779.97;5073921;28;20040;-37
2022/12/22 13:25:52;;;;;;;26.88;15.57;;;;;;;9.47;49.39;99776.53;5074244;28;20044;-36
2022/12/22 13:28:22;;;;;;;25.90;14.38;;;;;;;9.12;50.13;99785.31;5074381;28;20048;-37
2022/12/22 13:30:50;;;;;;;25.55;14.35;;;;;;;8.55;51.65;99778.28;5073673;28;20086;-37
2022/12/22 13:33:19;;;;;;;24.20;14.90;;;;;;;9.11;50.21;99780.19;5072017;28;20055;-38
2022/12/22 13:35:46;;;;;;;25.80;14.73;;;;;;;8.96;50.42;99773.13;5072466;28;20123;-36
2022/12/22 13:38:34;;;;;;;29.73;15.45;;;;;;;8.79;50.61;99769.91;5073649;28;20097;-37
2022/12/22 13:41:10;;;;;;;29.02;15.40;;;;;;;8.90;50.58;99773.06;5072976;28;20021;-36
2022/12/22 13:43:37;;;;;;;25.15;14.85;;;;;;;9.25;50.21;99779.25;5073092;28;20032;-37
2022/12/22 13:46:03;;;;;;;24.48;14.73;;;;;;;9.48;49.22;99770.19;5072569;28;20119;-36
2022/12/22 13:48:41;;;;;;;25.05;14.55;;;;;;;9.28;49.72;99772.75;5072698;28;20024;-36
2022/12/22 13:51:12;;;;;;;23.58;13.80;;;;;;;8.90;50.40;99773.06;5072691;28;20353;-37
2022/12/22 13:53:41;;;;;;;22.05;14.27;;;;;;;8.43;51.51;99770.00;5072328;28;20031;-36
2022/12/22 13:56:33;;;;;;;26.13;14.55;;;;;;;8.49;51.85;99766.59;5072420;28;20515;-37
2022/12/22 13:59:00;;;;;;;24.75;14.35;;;;;;;8.79;50.84;99764.59;5072451;28;20063;-37
2022/12/22 14:01:26;;;;;;;23.90;14.32;;;;;;;8.52;51.04;99762.75;5072711;28;20041;-36
2022/12/22 14:03:56;;;;;;;23.10;13.68;;;;;;;8.46;51.15;99758.19;5072439;28;20107;-36
2022/12/22 14:06:24;;;;;;;23.80;14.13;;;;;;;8.49;51.45;99761.31;5072558;28;20575;-36
2022/12/22 14:08:49;;;;;;;27.55;14.50;;;;;;;8.43;51.23;99762.03;5072363;28;20037;-36
2022/12/22 14:11:15;;;;;;;28.05;13.88;;;;;;;8.80;50.23;99762.78;5072304;28;20029;-36
2022/12/22 14:13:42;;;;;;;24.70;13.23;;;;;;;8.51;50.74;99756.63;5072348;28;20059;-36
2022/12/22 14:16:13;;;;;;;28.25;14.93;;;;;;;8.27;51.80;99756.97;5072234;28;20033;-36
2022/12/22 14:18:38;;;;;;;29.02;15.82;;;;;;;8.21;51.85;99756.69;5071974;28;20052;-36
2022/12/22 14:21:05;;;;;;;28.10;16.05;;;;;;;8.21;52.27;99751.38;5072234;28;20189;-36
2022/12/22 14:23:40;;;;;;;24.75;13.38;;;;;;;8.86;50.34;99746.09;5072243;28;20530;-37
2022/12/22 14:26:12;;;;;;;23.45;13.38;;;;;;;8.05;52.55;99751.59;5072388;28;20033;-35
2022/12/22 14:28:49;;;;;;;24.45;12.90;;;;;;;7.94;53.54;99758.22;5071891;28;20028;-36
2022/12/22 14:31:16;;;;;;;26.55;13.13;;;;;;;8.00;53.19;99751.38;5071995;28;20021;-36
2022/12/22 14:34:04;;;;;;;22.70;13.18;;;;;;;8.37;52.79;99757.47;5072267;28;20041;-36
2022/12/22 14:36:44;;;;;;;29.13;13.52;;;;;;;8.61;51.38;99749.16;5071710;28;20027;-37
2022/12/22 14:39:21;;;;;;;26.65;14.23;;;;;;;8.15;52.94;99762.75;5071973;28;20455;-36
2022/12/22 14:41:52;;;;;;;26.45;15.27;;;;;;;7.99;53.21;99755.81;5057723;28;20031;-36
2022/12/22 14:44:28;;;;;;;28.08;14.90;;;;;;;8.04;53.35;99747.31;5071589;28;20558;-36
2022/12/22 14:47:13;;;;;;;25.80;14.30;;;;;;;7.77;54.15;99740.91;5071957;28;20040;-36
2022/12/22 14:49:54;;;;;;;27.52;14.48;;;;;;;7.79;54.28;99745.00;5070146;28;20158;-36
2022/12/22 14:52:23;;;;;;;25.48;14.27;;;;;;;7.73;53.99;99751.03;5071205;28;20025;-37
2022/12/22 14:54:52;;;;;;;26.98;15.02;;;;;;;7.73;54.22;99751.03;5071473;28;20115;-37
2022/12/22 14:57:27;;;;;;;27.95;15.48;;;;;;;7.44;54.46;99752.72;5071745;28;20103;-36
2022/12/22 15:00:03;;;;;;;26.05;14.77;;;;;;;7.36;54.92;99755.44;5071471;28;20139;-36
2022/12/22 15:02:35;;;;;;;25.45;14.40;;;;;;;7.14;55.88;99757.16;5071520;28;20067;-37
2022/12/22 15:05:08;;;;;;;26.75;15.23;;;;;;;7.28;55.49;99758.16;5071360;28;20039;-35
2022/12/22 15:07:49;;;;;;;28.02;15.93;;;;;;;7.15;56.14;99758.78;5071155;28;20027;-36
2022/12/22 15:10:14;;;;;;;35.60;16.95;;;;;;;7.09;56.63;99761.34;5071327;28;20020;-37
2022/12/22 15:12:40;;;;;;;30.52;15.43;;;;;;;6.86;57.07;99754.28;5070889;28;20036;-37